createdAt,value
2023-05-19T00:02:03.563Z,68.0
2023-05-19T00:07:03.542Z,68.5
2023-05-19T00:12:03.545Z,68.5
2023-05-19T00:17:03.560Z,69.5
2023-05-19T00:27:03.559Z,72.0
2023-05-19T00:32:03.597Z,75.0
2023-05-19T00:37:03.560Z,76.0
2023-05-19T00:42:03.553Z,76.5
2023-05-19T00:47:03.638Z,76.5
2023-05-19T00:52:03.560Z,77.0
2023-05-19T00:57:03.560Z,77.5
2023-05-19T01:02:03.573Z,79.5
2023-05-19T01:07:03.572Z,80.0
2023-05-19T01:12:03.580Z,80.5
2023-05-19T01:17:03.575Z,80.0
2023-05-19T01:22:03.585Z,80.5
2023-05-19T01:27:03.574Z,83.5
2023-05-19T01:32:03.629Z,83.0
2023-05-19T01:37:03.586Z,82.5
2023-05-19T01:42:03.587Z,83.5
2023-05-19T01:47:03.592Z,84.5
2023-05-19T01:52:03.581Z,84.0
2023-05-19T01:57:03.592Z,86.0
2023-05-19T02:02:03.587Z,86.0
2023-05-19T02:07:03.589Z,86.0
2023-05-19T02:12:03.603Z,86.0
2023-05-19T02:17:03.589Z,86.0
2023-05-19T02:22:03.592Z,87.0
2023-05-19T02:27:03.590Z,87.5
2023-05-19T02:32:03.617Z,87.0
2023-05-19T02:37:03.591Z,87.0
2023-05-19T02:42:03.588Z,87.5
2023-05-19T02:47:03.589Z,88.5
2023-05-19T02:52:03.605Z,88.5
2023-05-19T02:57:03.605Z,89.0
2023-05-19T03:02:03.688Z,89.5
2023-05-19T03:07:03.600Z,89.5
2023-05-19T03:12:03.615Z,90.0
2023-05-19T03:17:03.649Z,91.0
2023-05-19T03:22:03.844Z,91.5
2023-05-19T03:27:03.605Z,93.5
2023-05-19T03:32:03.630Z,94.0
2023-05-19T03:37:03.613Z,93.0
2023-05-19T03:42:03.614Z,92.5
2023-05-19T03:47:03.617Z,92.5
2023-05-19T03:52:03.622Z,93.0
2023-05-19T03:57:03.614Z,94.5
2023-05-19T04:02:03.658Z,96.5
2023-05-19T04:07:03.623Z,97.5
2023-05-19T04:12:03.734Z,98.0
2023-05-19T04:17:03.644Z,98.5
2023-05-19T04:22:03.729Z,98.5
2023-05-19T04:27:03.727Z,98.5
2023-05-19T04:32:03.730Z,97.5
2023-05-19T04:37:03.749Z,98.5
2023-05-19T04:42:03.644Z,97.5
2023-05-19T04:47:03.718Z,98.0
2023-05-19T04:52:03.752Z,97.0
2023-05-19T04:57:03.652Z,100.0
2023-05-19T05:02:03.732Z,99.5
2023-05-19T05:07:03.643Z,100.0
2023-05-19T05:12:03.667Z,100.0
2023-05-19T05:17:03.636Z,100.0
2023-05-19T05:22:03.649Z,100.0
2023-05-19T05:27:03.646Z,99.5
2023-05-19T05:32:03.682Z,98.5
2023-05-19T05:37:03.644Z,99.0
2023-05-19T05:42:03.646Z,98.0
2023-05-19T05:47:03.654Z,97.5
2023-05-19T05:52:06.267Z,97.0
2023-05-19T05:57:03.662Z,96.5
2023-05-19T06:02:03.718Z,95.0
2023-05-19T06:07:03.662Z,94.5
2023-05-19T06:12:03.669Z,93.0
2023-05-19T06:17:03.690Z,91.5
2023-05-19T06:22:03.675Z,89.0
2023-05-19T06:27:03.682Z,89.0
2023-05-19T06:32:03.710Z,88.0
2023-05-19T06:37:03.689Z,87.5
2023-05-19T06:42:03.720Z,86.0
2023-05-19T06:47:03.741Z,85.0
2023-05-19T06:52:03.690Z,84.0
2023-05-19T06:57:03.684Z,80.5
2023-05-19T07:02:03.792Z,77.0
2023-05-19T07:07:03.696Z,77.5
2023-05-19T07:12:03.714Z,72.5
2023-05-19T07:17:03.711Z,74.5
2023-05-19T07:22:03.709Z,71.0
2023-05-19T07:27:03.722Z,66.5
2023-05-19T07:32:03.769Z,64.5
2023-05-19T07:37:03.722Z,65.0
2023-05-19T07:42:03.735Z,61.5
2023-05-19T07:47:03.729Z,60.5
2023-05-19T07:52:03.727Z,58.0
2023-05-19T07:57:03.728Z,58.5
2023-05-19T08:02:03.766Z,55.5
2023-05-19T08:07:03.733Z,58.5
2023-05-19T08:12:03.741Z,54.0
2023-05-19T08:17:03.739Z,54.5
2023-05-19T08:22:03.746Z,54.5
2023-05-19T08:27:03.746Z,53.5
2023-05-19T08:32:03.759Z,52.5
2023-05-19T08:37:03.759Z,48.0
2023-05-19T08:42:03.764Z,47.0
2023-05-19T08:47:03.846Z,47.5
2023-05-19T08:52:03.799Z,46.0
2023-05-19T08:57:03.797Z,46.5
2023-05-19T09:02:03.791Z,45.5
2023-05-19T09:07:03.825Z,47.5
2023-05-19T09:12:04.264Z,46.5
2023-05-19T09:17:04.141Z,45.5
2023-05-19T09:22:03.889Z,40.5
2023-05-19T09:27:03.822Z,40.0
2023-05-19T09:32:03.871Z,37.0
2023-05-19T09:37:03.822Z,39.5
2023-05-19T09:42:03.820Z,38.0
2023-05-19T09:47:03.827Z,34.0
2023-05-19T09:52:03.871Z,34.0
2023-05-19T09:57:03.832Z,36.0
2023-05-19T10:02:03.801Z,36.0
2023-05-19T10:07:03.797Z,37.0
2023-05-19T10:12:03.809Z,38.0
2023-05-19T10:17:03.832Z,35.5
2023-05-19T10:22:03.794Z,35.0
2023-05-19T10:27:03.798Z,35.0
2023-05-19T10:32:03.838Z,34.5
2023-05-19T10:37:03.811Z,34.0
2023-05-19T10:42:03.814Z,33.5
2023-05-19T10:47:03.905Z,36.0
2023-05-19T10:52:03.830Z,35.0
2023-05-19T10:57:03.829Z,34.0
2023-05-19T11:02:03.851Z,33.5
2023-05-19T11:07:03.922Z,33.5
2023-05-19T11:12:03.877Z,31.5
2023-05-19T11:17:03.992Z,33.5
2023-05-19T11:22:03.850Z,32.0
2023-05-19T11:27:03.847Z,33.5
2023-05-19T11:32:03.872Z,32.0
2023-05-19T11:37:03.845Z,30.5
2023-05-19T11:42:03.853Z,32.0
2023-05-19T11:47:03.846Z,31.0
2023-05-19T11:52:03.848Z,29.5
2023-05-19T11:57:03.866Z,30.5
2023-05-19T12:02:03.870Z,29.5
2023-05-19T12:07:03.856Z,29.5
2023-05-19T12:12:03.857Z,31.0
2023-05-19T12:17:03.876Z,31.0
2023-05-19T12:22:04.130Z,30.5
2023-05-19T12:27:03.867Z,29.5
2023-05-19T12:32:03.910Z,31.5
2023-05-19T12:37:03.875Z,30.0
2023-05-19T12:42:03.876Z,29.0
2023-05-19T12:47:03.872Z,29.5
2023-05-19T12:52:07.122Z,30.5
2023-05-19T12:57:03.874Z,30.5
2023-05-19T13:02:03.924Z,30.0
2023-05-19T13:07:03.896Z,30.0
2023-05-19T13:12:03.893Z,29.5
2023-05-19T13:17:03.974Z,30.0
2023-05-19T13:22:03.890Z,29.5
2023-05-19T13:27:03.901Z,31.5
2023-05-19T13:32:03.904Z,28.5
2023-05-19T13:37:04.154Z,28.0
2023-05-19T13:42:03.913Z,27.5
2023-05-19T13:47:03.974Z,28.5
2023-05-19T13:52:03.907Z,26.5
2023-05-19T13:57:03.963Z,28.0
2023-05-19T14:02:04.133Z,28.0
2023-05-19T14:07:03.925Z,26.5
2023-05-19T14:12:03.921Z,26.0
2023-05-19T14:17:03.917Z,29.0
2023-05-19T14:27:03.929Z,29.0
2023-05-19T14:32:04.115Z,25.5
2023-05-19T14:37:03.931Z,26.0
2023-05-19T14:42:03.948Z,25.0
2023-05-19T14:47:04.059Z,28.0
2023-05-19T14:52:03.932Z,27.5
2023-05-19T14:57:03.937Z,25.0
2023-05-19T15:02:03.951Z,26.0
2023-05-19T15:12:03.954Z,24.0
2023-05-19T15:17:04.035Z,25.5
2023-05-19T15:22:03.964Z,25.5
2023-05-19T15:27:03.975Z,26.0
2023-05-19T15:32:03.967Z,26.5
2023-05-19T15:37:03.968Z,24.5
2023-05-19T15:42:03.978Z,24.0
2023-05-19T15:47:03.967Z,23.5
2023-05-19T15:52:03.972Z,23.0
2023-05-19T15:57:03.971Z,23.0
2023-05-19T16:02:04.048Z,21.5
2023-05-19T16:07:03.995Z,24.0
2023-05-19T16:12:03.987Z,23.5
2023-05-19T16:17:04.004Z,25.5
2023-05-19T16:22:03.978Z,25.5
2023-05-19T16:27:03.978Z,24.0
2023-05-19T16:32:04.064Z,24.0
2023-05-19T16:37:04.006Z,23.0
2023-05-19T16:42:03.988Z,24.0
2023-05-19T16:47:04.005Z,23.5
2023-05-19T16:52:04.022Z,23.0
2023-05-19T16:57:04.003Z,24.5
2023-05-19T17:02:04.066Z,23.5
2023-05-19T17:07:04.032Z,24.5
2023-05-19T17:12:04.016Z,24.5
2023-05-19T17:17:04.018Z,25.0
2023-05-19T17:22:04.002Z,24.5
2023-05-19T17:27:04.012Z,24.5
2023-05-19T17:32:04.113Z,25.0
2023-05-19T17:37:04.047Z,25.0
2023-05-19T17:42:04.010Z,26.0
2023-05-19T17:47:04.031Z,26.0
2023-05-19T17:52:04.009Z,26.5
2023-05-19T17:57:04.049Z,27.0
2023-05-19T18:02:04.058Z,26.5
2023-05-19T18:07:04.010Z,27.0
2023-05-19T18:12:04.013Z,27.5
2023-05-19T18:17:04.023Z,27.0
2023-05-19T18:22:04.016Z,28.0
2023-05-19T18:27:04.016Z,28.5
2023-05-19T18:32:04.084Z,28.0
2023-05-19T19:37:04.870Z,37.0
2023-05-19T19:42:04.037Z,38.0
2023-05-19T19:47:04.037Z,39.5
2023-05-19T19:52:04.038Z,41.5
2023-05-19T19:57:04.039Z,41.5
2023-05-19T20:02:04.094Z,43.0
2023-05-19T20:07:04.034Z,43.0
2023-05-19T20:12:04.054Z,43.5
2023-05-19T20:17:04.038Z,44.0
2023-05-19T20:22:04.053Z,44.5
2023-05-19T20:27:04.041Z,45.0
2023-05-19T20:32:04.056Z,45.5
2023-05-19T20:37:04.049Z,46.5
2023-05-19T20:42:04.078Z,46.5
2023-05-19T20:47:04.054Z,47.0
2023-05-19T20:52:04.078Z,47.5
2023-05-19T20:57:04.075Z,48.5
2023-05-19T21:02:04.066Z,49.5
2023-05-19T21:07:04.103Z,49.5
2023-05-19T21:12:04.054Z,50.5
2023-05-19T21:17:04.121Z,51.0
2023-05-19T21:22:04.064Z,51.0
2023-05-19T21:27:04.065Z,51.5
2023-05-19T21:32:04.067Z,52.0
2023-05-19T21:37:04.067Z,52.5
2023-05-19T21:42:04.078Z,52.5
2023-05-19T21:47:04.063Z,52.5
2023-05-19T21:52:04.070Z,53.0
2023-05-19T21:57:04.083Z,53.0
2023-05-19T22:02:04.123Z,53.5
2023-05-19T22:07:04.079Z,53.0
2023-05-19T22:12:04.068Z,54.0
2023-05-19T22:17:04.078Z,54.0
2023-05-19T22:22:13.126Z,54.0
2023-05-19T22:27:04.075Z,55.0
2023-05-19T22:32:04.084Z,55.5
2023-05-19T22:37:04.081Z,55.5
2023-05-19T22:42:04.082Z,56.0
2023-05-19T22:47:04.079Z,56.5
2023-05-19T22:52:04.092Z,57.5
2023-05-19T22:57:04.084Z,59.5
2023-05-19T23:02:04.088Z,59.5
2023-05-19T23:07:04.087Z,61.5
2023-05-19T23:12:04.100Z,63.0
2023-05-19T23:17:04.169Z,63.0
2023-05-19T23:22:04.089Z,64.0
2023-05-19T23:27:04.129Z,65.0
2023-05-19T23:32:04.107Z,65.5
2023-05-19T23:37:04.097Z,66.5
2023-05-19T23:42:04.106Z,67.0
2023-05-19T23:47:04.251Z,66.0
2023-05-19T23:52:04.101Z,67.0
2023-05-19T23:57:04.117Z,68.5
